createdAt,value
2018-10-19T00:00:12.368Z,100667.37
2018-10-19T00:00:52.708Z,100669.07
2018-10-19T00:01:32.900Z,100681.19
2018-10-19T00:02:12.581Z,100679.39
2018-10-19T00:02:53.017Z,100671.39
2018-10-19T00:03:33.199Z,100682.09
2018-10-19T00:04:13.553Z,100677.83
2018-10-19T00:04:53.942Z,100674.61
2018-10-19T00:05:34.498Z,100682.94
2018-10-19T00:06:14.960Z,100686.91
2018-10-19T00:06:54.732Z,100682.09
2018-10-19T00:07:35.039Z,100687.00
2018-10-19T00:08:16.498Z,100689.02
2018-10-19T00:08:56.098Z,100681.31
2018-10-19T00:09:36.101Z,100687.22
2018-10-19T00:10:15.748Z,100684.41
2018-10-19T00:10:56.054Z,100682.27
2018-10-19T00:11:36.798Z,100684.95
2018-10-19T00:12:16.724Z,100682.89
2018-10-19T00:12:57.132Z,100682.05
2018-10-19T00:13:37.572Z,100682.98
2018-10-19T00:14:17.151Z,100684.45
2018-10-19T00:14:57.423Z,100673.23
2018-10-19T00:15:37.179Z,100676.01
2018-10-19T00:16:16.939Z,100684.91
2018-10-19T00:16:56.688Z,100682.94
2018-10-19T00:17:36.672Z,100682.14
2018-10-19T00:18:16.821Z,100677.58
2018-10-19T00:18:56.392Z,100685.23
2018-10-19T00:19:35.968Z,100688.40
2018-10-19T00:20:15.783Z,100689.79
2018-10-19T00:20:55.395Z,100689.16
2018-10-19T00:21:35.265Z,100681.83
2018-10-19T00:22:14.897Z,100686.97
2018-10-19T00:22:54.551Z,100681.34
2018-10-19T00:23:34.593Z,100691.94
2018-10-19T00:24:15.012Z,100689.79
2018-10-19T00:24:54.736Z,100681.73
2018-10-19T00:25:34.388Z,100688.98
2018-10-19T00:26:14.225Z,100684.02
2018-10-19T00:26:54.332Z,100678.03
2018-10-19T00:27:34.061Z,100688.31
2018-10-19T00:28:13.662Z,100689.61
2018-10-19T00:28:53.297Z,100693.22
2018-10-19T00:29:33.256Z,100693.98
2018-10-19T00:30:13.631Z,100693.98
2018-10-19T00:30:53.284Z,100687.59
2018-10-19T00:31:33.588Z,100685.27
2018-10-19T00:32:13.924Z,100684.52
2018-10-19T00:32:53.665Z,100695.28
2018-10-19T00:33:33.373Z,100694.39
2018-10-19T00:34:12.965Z,100687.06
2018-10-19T00:34:52.738Z,100692.51
2018-10-19T00:35:32.491Z,100687.77
2018-10-19T00:36:12.113Z,100687.06
2018-10-19T00:36:51.983Z,100689.42
2018-10-19T00:37:31.908Z,100689.83
2018-10-19T00:38:11.727Z,100694.56
2018-10-19T00:38:51.292Z,100694.07
2018-10-19T00:39:30.816Z,100690.10
2018-10-19T00:40:10.551Z,100690.27
2018-10-19T00:40:50.193Z,100695.81
2018-10-19T00:41:29.963Z,100691.74
2018-10-19T00:42:09.651Z,100691.79
2018-10-19T00:42:49.405Z,100691.34
2018-10-19T00:43:30.577Z,100693.12
2018-10-19T00:44:10.364Z,100686.25
2018-10-19T00:44:50.064Z,100689.20
2018-10-19T00:45:34.925Z,100682.59
2018-10-19T00:46:14.721Z,100681.65
2018-10-19T00:46:54.304Z,100684.64
2018-10-19T00:47:33.873Z,100679.23
2018-10-19T00:48:16.741Z,100681.82
2018-10-19T00:48:56.345Z,100685.31
2018-10-19T00:49:35.910Z,100682.36
2018-10-19T00:50:15.623Z,100679.05
2018-10-19T00:50:55.478Z,100686.34
2018-10-19T00:51:35.309Z,100683.06
2018-10-19T00:52:15.100Z,100687.31
2018-10-19T00:52:54.706Z,100687.19
2018-10-19T00:53:34.460Z,100687.77
2018-10-19T00:54:14.220Z,100689.45
2018-10-19T00:54:54.187Z,100692.59
2018-10-19T00:55:33.950Z,100686.11
2018-10-19T00:56:13.887Z,100685.66
2018-10-19T00:56:53.661Z,100692.71
2018-10-19T00:57:33.492Z,100690.12
2018-10-19T00:58:13.278Z,100689.33
2018-10-19T00:58:53.030Z,100686.38
2018-10-19T00:59:33.307Z,100684.59
2018-10-19T01:00:13.288Z,100690.67
2018-10-19T01:00:52.853Z,100685.53
2018-10-19T01:01:32.664Z,100685.25
2018-10-19T01:02:12.410Z,100688.73
2018-10-19T01:02:52.117Z,100686.31
2018-10-19T01:03:31.949Z,100693.23
2018-10-19T01:04:11.633Z,100685.86
2018-10-19T01:04:51.901Z,100691.41
2018-10-19T01:05:32.236Z,100691.05
2018-10-19T01:06:12.368Z,100694.08
2018-10-19T01:06:52.052Z,100690.87
2018-10-19T01:07:31.877Z,100694.81
2018-10-19T01:08:11.637Z,100688.78
2018-10-19T01:08:51.447Z,100685.45
2018-10-19T01:09:31.284Z,100689.39
2018-10-19T01:10:15.096Z,100691.94
2018-10-19T01:10:54.801Z,100688.05
2018-10-19T01:11:34.915Z,100685.27
2018-10-19T01:12:14.470Z,100687.86
2018-10-19T01:12:57.162Z,100691.17
2018-10-19T01:13:36.764Z,100692.14
2018-10-19T01:14:16.512Z,100688.19
2018-10-19T01:14:56.154Z,100684.30
2018-10-19T01:15:36.080Z,100682.95
2018-10-19T01:16:15.626Z,100686.71
2018-10-19T01:16:55.337Z,100682.91
2018-10-19T01:17:35.397Z,100682.47
2018-10-19T01:18:15.034Z,100677.89
2018-10-19T01:18:54.892Z,100677.24
2018-10-19T01:19:34.815Z,100681.30
2018-10-19T01:20:14.789Z,100677.33
2018-10-19T01:20:54.338Z,100687.29
2018-10-19T01:21:34.421Z,100681.83
2018-10-19T01:22:14.664Z,100681.91
2018-10-19T01:22:54.424Z,100680.62
2018-10-19T01:23:34.244Z,100680.70
2018-10-19T01:24:14.007Z,100682.13
2018-10-19T01:24:53.733Z,100681.95
2018-10-19T01:25:33.361Z,100680.26
2018-10-19T01:26:13.004Z,100685.56
2018-10-19T01:26:52.756Z,100685.56
2018-10-19T01:27:32.596Z,100678.72
2018-10-19T01:28:12.775Z,100679.41
2018-10-19T01:28:52.770Z,100676.45
2018-10-19T01:29:32.474Z,100673.50
2018-10-19T01:30:12.247Z,100680.38
2018-10-19T01:30:51.840Z,100678.97
2018-10-19T01:31:31.438Z,100680.78
2018-10-19T01:32:11.182Z,100678.12
2018-10-19T01:32:51.039Z,100678.19
2018-10-19T01:33:30.808Z,100678.59
2018-10-19T01:34:10.441Z,100679.04
2018-10-19T01:34:50.179Z,100680.26
2018-10-19T01:35:29.749Z,100679.89
2018-10-19T01:36:09.812Z,100678.88
2018-10-19T01:36:49.480Z,100678.48
2018-10-19T01:37:29.068Z,100687.98
2018-10-19T01:38:08.736Z,100681.63
2018-10-19T01:38:48.667Z,100682.16
2018-10-19T01:39:28.213Z,100683.09
2018-10-19T01:40:10.280Z,100681.27
2018-10-19T01:40:50.149Z,100682.16
2018-10-19T01:41:29.709Z,100683.91
2018-10-19T01:42:09.369Z,100670.92
2018-10-19T01:42:49.095Z,100684.30
2018-10-19T01:43:29.148Z,100678.84
2018-10-19T01:44:09.760Z,100679.29
2018-10-19T01:44:49.459Z,100686.66
2018-10-19T01:45:29.716Z,100681.48
2018-10-19T01:46:09.455Z,100677.63
2018-10-19T01:46:50.411Z,100684.14
2018-10-19T01:47:30.115Z,100675.45
2018-10-19T01:48:10.023Z,100681.52
2018-10-19T01:48:49.593Z,100684.95
2018-10-19T01:49:29.394Z,100685.45
2018-10-19T01:50:09.997Z,100682.05
2018-10-19T01:50:49.564Z,100681.67
2018-10-19T01:51:29.248Z,100680.95
2018-10-19T01:52:08.873Z,100677.48
2018-10-19T01:52:48.530Z,100681.77
2018-10-19T01:53:28.566Z,100681.31
2018-10-19T01:54:08.213Z,100681.00
2018-10-19T01:54:47.896Z,100678.23
2018-10-19T01:55:27.573Z,100678.68
2018-10-19T01:56:07.209Z,100678.08
2018-10-19T01:56:46.892Z,100686.13
2018-10-19T01:57:26.570Z,100687.43
2018-10-19T01:58:06.280Z,100683.09
2018-10-19T01:58:46.041Z,100686.05
2018-10-19T01:59:25.740Z,100685.31
2018-10-19T02:00:06.634Z,100687.19
2018-10-19T02:00:46.324Z,100687.83
2018-10-19T02:01:25.937Z,100683.22
2018-10-19T02:02:06.481Z,100683.14
2018-10-19T02:02:46.105Z,100678.97
2018-10-19T02:03:25.845Z,100681.56
2018-10-19T02:04:05.573Z,100683.30
2018-10-19T02:04:45.224Z,100684.11
2018-10-19T02:05:24.852Z,100674.28
2018-10-19T02:06:04.956Z,100683.34
2018-10-19T02:06:45.152Z,100675.28
2018-10-19T02:07:24.848Z,100679.50
2018-10-19T02:08:04.780Z,100678.65
2018-10-19T02:08:44.595Z,100682.61
2018-10-19T02:09:24.206Z,100681.76
2018-10-19T02:10:03.785Z,100679.30
2018-10-19T02:10:43.432Z,100678.84
2018-10-19T02:11:23.117Z,100676.70
2018-10-19T02:12:02.864Z,100679.25
2018-10-19T02:12:42.728Z,100680.50
2018-10-19T02:13:22.838Z,100682.00
2018-10-19T02:14:02.603Z,100684.19
2018-10-19T02:14:42.342Z,100686.78
2018-10-19T02:15:21.919Z,100679.33
2018-10-19T02:16:01.615Z,100680.75
2018-10-19T02:16:41.662Z,100681.20
2018-10-19T02:17:21.245Z,100681.60
2018-10-19T02:18:01.063Z,100687.19
2018-10-19T02:18:40.592Z,100683.30
2018-10-19T02:19:20.285Z,100684.03
2018-10-19T02:20:00.100Z,100681.84
2018-10-19T02:20:40.232Z,100684.84
2018-10-19T02:21:19.926Z,100682.20
2018-10-19T02:21:59.606Z,100687.23
2018-10-19T02:22:39.440Z,100680.42
2018-10-19T02:23:19.251Z,100678.97
2018-10-19T02:23:59.068Z,100674.40
2018-10-19T02:24:38.840Z,100685.41
2018-10-19T02:25:18.839Z,100683.63
2018-10-19T02:25:58.679Z,100681.56
2018-10-19T02:26:38.392Z,100687.59
2018-10-19T02:27:18.484Z,100685.94
2018-10-19T02:27:58.276Z,100679.86
2018-10-19T02:28:37.929Z,100683.30
2018-10-19T02:29:17.742Z,100688.44
2018-10-19T02:29:57.491Z,100682.66
2018-10-19T02:30:37.300Z,100683.17
2018-10-19T02:31:17.131Z,100685.36
2018-10-19T02:31:56.832Z,100684.15
2018-10-19T02:32:36.740Z,100684.59
2018-10-19T02:33:16.352Z,100679.02
2018-10-19T02:33:56.242Z,100675.58
2018-10-19T02:34:35.806Z,100675.29
2018-10-19T02:35:15.592Z,100680.02
2018-10-19T02:35:55.369Z,100678.23
2018-10-19T02:36:35.028Z,100680.58
2018-10-19T02:37:14.624Z,100683.09
2018-10-19T02:37:54.246Z,100674.20
2018-10-19T02:38:34.078Z,100682.81
2018-10-19T02:39:13.675Z,100679.13
2018-10-19T02:39:53.664Z,100677.56
2018-10-19T02:40:33.840Z,100682.37
2018-10-19T02:41:13.699Z,100681.52
2018-10-19T02:41:53.453Z,100679.38
2018-10-19T02:42:33.188Z,100683.14
2018-10-19T02:43:13.205Z,100686.38
2018-10-19T02:43:52.783Z,100681.16
2018-10-19T02:44:32.551Z,100681.27
2018-10-19T02:45:12.261Z,100681.88
2018-10-19T02:45:52.147Z,100678.36
2018-10-19T02:46:31.780Z,100680.67
2018-10-19T02:47:11.478Z,100681.12
2018-10-19T02:47:51.280Z,100683.66
2018-10-19T02:48:30.974Z,100686.20
2018-10-19T02:49:10.600Z,100686.13
2018-10-19T02:49:50.324Z,100686.49
2018-10-19T02:50:30.079Z,100682.16
2018-10-19T02:51:09.848Z,100686.89
2018-10-19T02:51:49.748Z,100682.23
2018-10-19T02:52:29.432Z,100681.88
2018-10-19T02:53:09.191Z,100678.07
2018-10-19T02:53:49.227Z,100679.48
2018-10-19T02:54:28.924Z,100683.61
2018-10-19T02:55:09.531Z,100671.27
2018-10-19T02:55:49.108Z,100678.92
2018-10-19T02:56:28.794Z,100683.56
2018-10-19T02:57:08.641Z,100684.70
2018-10-19T02:57:48.740Z,100687.33
2018-10-19T02:58:28.553Z,100678.98
2018-10-19T02:59:08.324Z,100635.84
2018-10-19T02:59:48.397Z,100676.08
2018-10-19T03:00:28.195Z,100676.02
2018-10-19T03:01:07.836Z,100670.34
2018-10-19T03:01:47.662Z,100671.68
2018-10-19T03:02:27.478Z,100678.33
2018-10-19T03:03:07.146Z,100677.48
2018-10-19T03:03:47.178Z,100683.55
2018-10-19T03:04:26.940Z,100684.36
2018-10-19T03:05:07.792Z,100684.64
2018-10-19T03:05:47.995Z,100687.67
2018-10-19T03:06:27.608Z,100683.46
2018-10-19T03:07:07.628Z,100683.06
2018-10-19T03:07:47.457Z,100681.11
2018-10-19T03:08:27.214Z,100682.27
2018-10-19T03:09:09.834Z,100681.37
2018-10-19T03:09:49.825Z,100687.53
2018-10-19T03:10:29.626Z,100684.19
2018-10-19T03:11:09.346Z,100684.36
2018-10-19T03:11:49.408Z,100681.41
2018-10-19T03:12:29.131Z,100688.92
2018-10-19T03:13:09.229Z,100677.71
2018-10-19T03:13:48.989Z,100682.94
2018-10-19T03:14:29.505Z,100682.09
2018-10-19T03:15:10.090Z,100680.02
2018-10-19T03:15:50.342Z,100679.66
2018-10-19T03:16:30.087Z,100674.67
2018-10-19T03:17:09.875Z,100682.94
2018-10-19T03:17:50.043Z,100682.66
2018-10-19T03:18:29.798Z,100678.09
2018-10-19T03:19:09.383Z,100679.83
2018-10-19T03:19:49.503Z,100680.52
2018-10-19T03:20:30.003Z,100678.53
2018-10-19T03:21:10.212Z,100673.00
2018-10-19T03:21:50.798Z,100680.75
2018-10-19T03:22:30.484Z,100680.87
2018-10-19T03:23:10.211Z,100682.26
2018-10-19T03:23:50.655Z,100678.98
2018-10-19T03:24:30.385Z,100677.73
2018-10-19T03:25:10.521Z,100683.64
2018-10-19T03:25:50.388Z,100684.20
2018-10-19T03:26:30.025Z,100673.61
2018-10-19T03:27:10.108Z,100682.75
2018-10-19T03:27:50.214Z,100677.05
2018-10-19T03:28:29.890Z,100684.25
2018-10-19T03:29:09.653Z,100682.06
2018-10-19T03:29:49.633Z,100682.95
2018-10-19T03:30:29.367Z,100680.41
2018-10-19T03:31:09.169Z,100685.59
2018-10-19T03:31:49.430Z,100691.66
2018-10-19T03:32:29.317Z,100690.89
2018-10-19T03:33:08.845Z,100686.80
2018-10-19T03:33:49.044Z,100676.69
2018-10-19T03:34:28.794Z,100685.39
2018-10-19T03:35:08.685Z,100686.69
2018-10-19T03:35:48.846Z,100685.06
2018-10-19T03:36:28.656Z,100686.69
2018-10-19T03:37:08.492Z,100683.89
2018-10-19T03:37:48.132Z,100678.92
2018-10-19T03:38:27.955Z,100681.52
2018-10-19T03:39:08.804Z,100678.64
2018-10-19T03:39:48.835Z,100669.30
2018-10-19T03:40:28.539Z,100674.39
2018-10-19T03:41:08.352Z,100671.40
2018-10-19T03:41:48.059Z,100677.07
2018-10-19T03:42:27.830Z,100675.89
2018-10-19T03:43:07.488Z,100674.84
2018-10-19T03:43:47.209Z,100676.78
2018-10-19T03:44:26.866Z,100683.50
2018-10-19T03:45:07.338Z,100673.30
2018-10-19T03:45:47.185Z,100675.77
2018-10-19T03:46:27.120Z,100684.02
2018-10-19T03:47:06.817Z,100682.73
2018-10-19T03:47:46.872Z,100679.78
2018-10-19T03:48:26.532Z,100678.03
2018-10-19T03:49:06.840Z,100683.34
2018-10-19T03:49:46.861Z,100679.91
2018-10-19T03:50:26.615Z,100680.83
2018-10-19T03:51:06.989Z,100679.66
2018-10-19T03:51:46.897Z,100678.52
2018-10-19T03:52:26.663Z,100674.80
2018-10-19T03:53:06.677Z,100673.95
2018-10-19T03:53:46.927Z,100680.42
2018-10-19T03:54:26.773Z,100681.77
2018-10-19T03:55:06.908Z,100678.81
2018-10-19T03:55:46.615Z,100681.16
2018-10-19T03:56:26.459Z,100681.16
2018-10-19T03:57:06.134Z,100677.03
2018-10-19T03:57:46.076Z,100680.83
2018-10-19T03:58:25.717Z,100679.62
2018-10-19T03:59:05.911Z,100678.73
2018-10-19T03:59:45.764Z,100676.98
2018-10-19T04:00:25.361Z,100675.38
2018-10-19T04:01:05.160Z,100680.91
2018-10-19T04:01:44.774Z,100684.35
2018-10-19T04:02:24.453Z,100684.03
2018-10-19T04:03:04.344Z,100680.91
2018-10-19T04:03:44.635Z,100681.84
2018-10-19T04:04:24.413Z,100681.44
2018-10-19T04:05:04.281Z,100681.60
2018-10-19T04:05:44.386Z,100679.02
2018-10-19T04:06:24.323Z,100683.38
2018-10-19T04:07:04.512Z,100682.13
2018-10-19T04:07:44.754Z,100681.23
2018-10-19T04:08:24.596Z,100676.06
2018-10-19T04:09:06.531Z,100682.89
2018-10-19T04:09:46.504Z,100690.66
2018-10-19T04:10:26.251Z,100691.06
2018-10-19T04:11:05.880Z,100689.00
2018-10-19T04:11:45.759Z,100685.53
2018-10-19T04:12:25.535Z,100695.80
2018-10-19T04:13:05.539Z,100693.66
2018-10-19T04:13:45.303Z,100694.06
2018-10-19T04:14:24.900Z,100690.22
2018-10-19T04:15:05.263Z,100689.21
2018-10-19T04:15:45.084Z,100684.44
2018-10-19T04:16:26.949Z,100696.09
2018-10-19T04:17:06.706Z,100693.45
2018-10-19T04:17:46.658Z,100696.09
2018-10-19T04:18:26.301Z,100693.50
2018-10-19T04:19:06.740Z,100691.72
2018-10-19T04:19:46.284Z,100697.38
2018-10-19T04:20:26.257Z,100699.08
2018-10-19T04:21:05.926Z,100691.52
2018-10-19T04:21:45.997Z,100690.66
2018-10-19T04:22:25.808Z,100690.26
2018-10-19T04:23:09.231Z,100694.55
2018-10-19T04:23:49.436Z,100699.36
2018-10-19T04:24:29.043Z,100687.78
2018-10-19T04:25:09.121Z,100695.14
2018-10-19T04:25:48.872Z,100696.00
2018-10-19T04:26:28.732Z,100694.30
2018-10-19T04:27:08.547Z,100692.89
2018-10-19T04:27:48.828Z,100693.73
2018-10-19T04:28:28.842Z,100692.59
2018-10-19T04:29:08.653Z,100692.16
2018-10-19T04:29:48.681Z,100691.71
2018-10-19T04:30:28.292Z,100678.28
2018-10-19T04:31:08.227Z,100696.48
2018-10-19T04:31:47.977Z,100697.58
2018-10-19T04:32:27.812Z,100693.94
2018-10-19T04:33:07.520Z,100694.59
2018-10-19T04:33:47.341Z,100697.29
2018-10-19T04:34:27.076Z,100701.17
2018-10-19T04:35:07.036Z,100697.90
2018-10-19T04:35:46.963Z,100694.09
2018-10-19T04:36:26.751Z,100699.11
2018-10-19T04:37:07.163Z,100703.44
2018-10-19T04:37:46.829Z,100701.41
2018-10-19T04:38:26.677Z,100694.42
2018-10-19T04:39:07.486Z,100704.25
2018-10-19T04:39:47.382Z,100708.13
2018-10-19T04:40:27.144Z,100701.63
2018-10-19T04:41:07.061Z,100702.55
2018-10-19T04:41:47.183Z,100708.17
2018-10-19T04:42:27.195Z,100705.09
2018-10-19T04:43:07.143Z,100699.27
2018-10-19T04:43:46.969Z,100706.03
2018-10-19T04:44:26.988Z,100699.67
2018-10-19T04:45:07.350Z,100703.48
2018-10-19T04:45:47.896Z,100701.78
2018-10-19T04:46:27.832Z,100704.73
2018-10-19T04:47:07.602Z,100698.59
2018-10-19T04:47:47.539Z,100704.61
2018-10-19T04:48:27.532Z,100702.84
2018-10-19T04:49:07.291Z,100708.02
2018-10-19T04:49:47.041Z,100703.65
2018-10-19T04:50:26.678Z,100709.67
2018-10-19T04:51:06.633Z,100706.23
2018-10-19T04:51:46.394Z,100707.53
2018-10-19T04:52:26.060Z,100708.30
2018-10-19T04:53:06.044Z,100703.52
2018-10-19T04:53:45.971Z,100708.63
2018-10-19T04:54:26.076Z,100712.63
2018-10-19T04:55:07.405Z,100707.89
2018-10-19T04:55:46.945Z,100714.77
2018-10-19T04:56:27.017Z,100705.70
2018-10-19T04:57:06.957Z,100705.88
2018-10-19T04:57:47.259Z,100700.41
2018-10-19T04:58:27.189Z,100707.73
2018-10-19T04:59:07.069Z,100707.49
2018-10-19T04:59:46.873Z,100708.34
2018-10-19T05:00:26.770Z,100711.02
2018-10-19T05:01:06.384Z,100716.27
2018-10-19T05:01:46.164Z,100709.47
2018-10-19T05:02:26.101Z,100713.31
2018-10-19T05:03:06.353Z,100708.50
2018-10-19T05:03:46.080Z,100714.60
2018-10-19T05:04:25.840Z,100703.08
2018-10-19T05:05:06.758Z,100713.91
2018-10-19T05:05:46.499Z,100716.53
2018-10-19T05:06:26.696Z,100711.88
2018-10-19T05:07:06.693Z,100715.77
2018-10-19T05:07:46.880Z,100711.59
2018-10-19T05:08:26.684Z,100716.66
2018-10-19T05:09:09.579Z,100720.05
2018-10-19T05:09:49.502Z,100721.30
2018-10-19T05:10:29.384Z,100722.56
2018-10-19T05:11:09.090Z,100723.05
2018-10-19T05:11:49.304Z,100722.64
2018-10-19T05:12:29.212Z,100719.69
2018-10-19T05:13:09.244Z,100722.34
2018-10-19T05:13:49.215Z,100722.72
2018-10-19T05:14:28.941Z,100724.42
2018-10-19T05:15:10.593Z,100721.91
2018-10-19T05:15:51.266Z,100722.28
2018-10-19T05:16:31.132Z,100723.64
2018-10-19T05:17:11.097Z,100723.64
2018-10-19T05:17:51.523Z,100731.26
2018-10-19T05:18:31.117Z,100728.70
2018-10-19T05:19:10.756Z,100722.56
2018-10-19T05:19:50.657Z,100719.76
2018-10-19T05:20:30.525Z,100728.37
2018-10-19T05:21:10.268Z,100718.55
2018-10-19T05:21:50.154Z,100721.58
2018-10-19T05:22:30.058Z,100720.65
2018-10-19T05:23:09.646Z,100722.72
2018-10-19T05:23:49.573Z,100727.12
2018-10-19T05:24:29.312Z,100727.08
2018-10-19T05:25:11.189Z,100727.01
2018-10-19T05:25:50.806Z,100725.38
2018-10-19T05:26:30.712Z,100733.48
2018-10-19T05:27:10.767Z,100730.41
2018-10-19T05:27:51.059Z,100730.48
2018-10-19T05:28:30.677Z,100725.83
2018-10-19T05:29:10.362Z,100732.19
2018-10-19T05:29:50.396Z,100733.59
2018-10-19T05:30:30.024Z,100729.67
2018-10-19T05:31:09.814Z,100729.27
2018-10-19T05:31:49.600Z,100731.04
2018-10-19T05:32:29.172Z,100728.81
2018-10-19T05:33:08.829Z,100727.52
2018-10-19T05:33:48.682Z,100733.03
2018-10-19T05:34:28.618Z,100729.59
2018-10-19T05:35:08.367Z,100729.41
2018-10-19T05:35:48.317Z,100727.72
2018-10-19T05:36:27.916Z,100733.13
2018-10-19T05:37:07.470Z,100728.59
2018-10-19T05:37:47.419Z,100730.77
2018-10-19T05:38:27.264Z,100726.56
2018-10-19T05:39:08.514Z,100728.30
2018-10-19T05:39:48.168Z,100733.77
2018-10-19T05:40:28.197Z,100733.32
2018-10-19T05:41:07.911Z,100731.63
2018-10-19T05:41:47.869Z,100700.47
2018-10-19T05:42:27.839Z,100728.39
2018-10-19T05:43:07.450Z,100736.90
2018-10-19T05:43:47.081Z,100734.14
2018-10-19T05:44:27.221Z,100730.37
2018-10-19T05:45:08.700Z,100727.38
2018-10-19T05:45:48.357Z,100729.11
2018-10-19T05:46:29.171Z,100737.69
2018-10-19T05:47:08.776Z,100721.95
2018-10-19T05:47:48.736Z,100734.14
2018-10-19T05:48:28.982Z,100739.81
2018-10-19T05:49:08.651Z,100734.15
2018-10-19T05:49:48.406Z,100735.29
2018-10-19T05:50:28.182Z,100741.77
2018-10-19T05:51:08.281Z,100742.40
2018-10-19T05:51:48.022Z,100737.67
2018-10-19T05:52:27.666Z,100734.72
2018-10-19T05:53:07.412Z,100734.83
2018-10-19T05:53:47.480Z,100734.02
2018-10-19T05:54:27.514Z,100735.80
2018-10-19T05:55:07.786Z,100743.08
2018-10-19T05:55:47.536Z,100741.02
2018-10-19T05:56:27.443Z,100742.31
2018-10-19T05:57:07.136Z,100743.98
2018-10-19T05:57:46.827Z,100749.08
2018-10-19T05:58:26.667Z,100737.19
2018-10-19T05:59:06.771Z,100745.87
2018-10-19T05:59:46.693Z,100746.33
2018-10-19T06:00:26.952Z,100745.03
2018-10-19T06:01:06.951Z,100748.31
2018-10-19T06:01:46.766Z,100739.41
2018-10-19T06:02:26.797Z,100736.90
2018-10-19T06:03:06.642Z,100734.38
2018-10-19T06:03:46.518Z,100738.16
2018-10-19T06:04:26.272Z,100739.45
2018-10-19T06:05:07.310Z,100739.16
2018-10-19T06:05:47.355Z,100741.30
2018-10-19T06:06:27.267Z,100738.81
2018-10-19T06:07:07.082Z,100739.94
2018-10-19T06:07:46.984Z,100750.25
2018-10-19T06:08:26.677Z,100744.63
2018-10-19T06:09:08.700Z,100739.48
2018-10-19T06:09:48.329Z,100746.85
2018-10-19T06:10:28.244Z,100737.75
2018-10-19T06:11:07.923Z,100743.77
2018-10-19T06:11:47.886Z,100747.77
2018-10-19T06:12:27.858Z,100748.66
2018-10-19T06:13:07.595Z,100750.73
2018-10-19T06:13:47.517Z,100748.47
2018-10-19T06:14:27.144Z,100746.69
2018-10-19T06:15:08.026Z,100741.59
2018-10-19T06:15:47.626Z,100742.59
2018-10-19T06:16:27.476Z,100753.16
2018-10-19T06:17:07.180Z,100741.78
2018-10-19T06:17:47.037Z,100745.96
2018-10-19T06:18:26.908Z,100744.98
2018-10-19T06:19:07.765Z,100745.18
2018-10-19T06:19:47.277Z,100742.67
2018-10-19T06:20:27.005Z,100739.27
2018-10-19T06:21:07.021Z,100742.15
2018-10-19T06:21:46.800Z,100742.59
2018-10-19T06:22:26.664Z,100740.89
2018-10-19T06:23:07.098Z,100746.77
2018-10-19T06:23:46.829Z,100743.04
2018-10-19T06:24:26.518Z,100745.18
2018-10-19T06:25:06.428Z,100747.45
2018-10-19T06:25:46.378Z,100746.27
2018-10-19T06:26:26.631Z,100747.48
2018-10-19T06:27:07.239Z,100752.58
2018-10-19T06:27:46.955Z,100747.55
2018-10-19T06:28:26.721Z,100747.67
2018-10-19T06:29:06.444Z,100759.69
2018-10-19T06:29:46.296Z,100750.14
2018-10-19T06:30:26.116Z,100752.33
2018-10-19T06:31:06.317Z,100754.11
2018-10-19T06:31:46.654Z,100751.16
2018-10-19T06:32:26.748Z,100755.80
2018-10-19T06:33:06.669Z,100753.16
2018-10-19T06:33:46.294Z,100759.63
2018-10-19T06:34:26.322Z,100764.04
2018-10-19T06:35:06.331Z,100763.41
2018-10-19T06:35:46.218Z,100760.73
2018-10-19T06:36:26.802Z,100760.97
2018-10-19T06:37:06.497Z,100760.30
2018-10-19T06:37:46.440Z,100759.00
2018-10-19T06:38:26.152Z,100762.56
2018-10-19T06:39:08.923Z,100763.11
2018-10-19T06:39:48.447Z,100755.34
2018-10-19T06:40:28.092Z,100768.25
2018-10-19T06:41:07.946Z,100756.20
2018-10-19T06:41:48.318Z,100761.39
2018-10-19T06:42:28.207Z,100767.02
2018-10-19T06:43:08.068Z,100762.33
2018-10-19T06:43:47.651Z,100751.88
2018-10-19T06:44:27.577Z,100762.21
2018-10-19T06:45:07.507Z,100756.09
2018-10-19T06:45:47.164Z,100756.42
2018-10-19T06:46:27.577Z,100759.33
2018-10-19T06:47:07.788Z,100761.44
2018-10-19T06:47:47.730Z,100758.31
2018-10-19T06:48:27.452Z,100752.25
2018-10-19T06:49:07.294Z,100757.02
2018-10-19T06:49:47.260Z,100752.04
2018-10-19T06:50:27.091Z,100756.37
2018-10-19T06:51:06.753Z,100752.16
2018-10-19T06:51:46.505Z,100758.59
2018-10-19T06:52:26.260Z,100753.86
2018-10-19T06:53:06.696Z,100759.13
2018-10-19T06:53:46.566Z,100752.09
2018-10-19T06:54:26.919Z,100753.09
2018-10-19T06:55:08.484Z,100756.42
2018-10-19T06:55:48.198Z,100759.77
2018-10-19T06:56:28.522Z,100762.48
2018-10-19T06:57:08.158Z,100757.34
2018-10-19T06:57:48.068Z,100758.73
2018-10-19T06:58:27.639Z,100760.99
2018-10-19T06:59:07.369Z,100767.59
2018-10-19T06:59:47.446Z,100764.80
2018-10-19T07:00:27.266Z,100761.64
2018-10-19T07:01:07.100Z,100760.22
2018-10-19T07:01:46.864Z,100762.94
2018-10-19T07:02:26.712Z,100757.63
2018-10-19T07:03:07.252Z,100765.81
2018-10-19T07:03:47.515Z,100760.27
2018-10-19T07:04:27.342Z,100765.13
2018-10-19T07:05:07.107Z,100769.25
2018-10-19T07:05:47.434Z,100769.16
2018-10-19T07:06:27.546Z,100775.02
2018-10-19T07:07:07.348Z,100760.19
2018-10-19T07:07:47.220Z,100761.70
2018-10-19T07:08:27.465Z,100776.60
2018-10-19T07:09:08.741Z,100772.39
2018-10-19T07:09:48.815Z,100769.63
2018-10-19T07:10:28.388Z,100773.97
2018-10-19T07:11:08.295Z,100777.17
2018-10-19T07:11:48.044Z,100776.41
2018-10-19T07:12:27.736Z,100778.36
2018-10-19T07:13:07.970Z,100776.78
2018-10-19T07:13:47.494Z,100769.66
2018-10-19T07:14:27.205Z,100771.44
2018-10-19T07:15:08.020Z,100784.23
2018-10-19T07:15:47.696Z,100777.02
2018-10-19T07:16:27.871Z,100781.30
2018-10-19T07:17:07.591Z,100786.45
2018-10-19T07:17:47.385Z,100782.88
2018-10-19T07:18:27.062Z,100778.67
2018-10-19T07:19:07.194Z,100782.16
2018-10-19T07:19:47.093Z,100781.67
2018-10-19T07:20:26.798Z,100784.19
2018-10-19T07:21:06.443Z,100786.45
2018-10-19T07:21:46.236Z,100787.84
2018-10-19T07:22:26.038Z,100786.73
2018-10-19T07:23:06.220Z,100789.32
2018-10-19T07:23:46.244Z,100791.38
2018-10-19T07:24:25.949Z,100787.78
2018-10-19T07:25:05.992Z,100786.14
2018-10-19T07:25:45.497Z,100790.02
2018-10-19T07:26:25.220Z,100790.02
2018-10-19T07:27:05.288Z,100791.27
2018-10-19T07:27:44.910Z,100783.78
2018-10-19T07:28:24.771Z,100784.68
2018-10-19T07:29:05.067Z,100788.80
2018-10-19T07:29:45.054Z,100789.84
2018-10-19T07:30:24.887Z,100787.66
2018-10-19T07:31:04.461Z,100788.51
2018-10-19T07:31:44.157Z,100792.70
2018-10-19T07:32:23.995Z,100793.41
2018-10-19T07:33:03.933Z,100792.96
2018-10-19T07:33:43.588Z,100794.30
2018-10-19T07:34:23.452Z,100796.66
2018-10-19T07:35:03.176Z,100797.64
2018-10-19T07:35:43.146Z,100787.84